createdAt,value
2019-04-25T00:01:03.355Z,85.80
2019-04-25T00:03:38.304Z,85.70
2019-04-25T00:06:08.049Z,85.80
2019-04-25T00:08:37.399Z,85.60
2019-04-25T00:11:08.470Z,86.00
2019-04-25T00:13:38.012Z,85.90
2019-04-25T00:16:08.414Z,86.60
2019-04-25T00:18:38.620Z,86.80
2019-04-25T00:21:25.803Z,87.30
2019-04-25T00:23:56.753Z,88.10
2019-04-25T00:26:45.142Z,87.60
2019-04-25T00:29:15.558Z,87.60
2019-04-25T00:31:45.127Z,87.80
2019-04-25T00:34:15.236Z,87.90
2019-04-25T00:36:45.633Z,88.00
2019-04-25T00:39:15.057Z,88.20
2019-04-25T00:41:45.502Z,87.80
2019-04-25T00:44:15.452Z,87.10
2019-04-25T00:46:47.831Z,87.50
2019-04-25T00:49:15.864Z,87.20
2019-04-25T00:51:46.098Z,87.80
2019-04-25T00:54:15.468Z,87.90
2019-04-25T00:56:46.128Z,88.20
2019-04-25T00:59:23.118Z,88.90
2019-04-25T01:01:54.169Z,88.60
2019-04-25T01:04:25.907Z,88.80
2019-04-25T01:06:55.214Z,88.60
2019-04-25T01:09:26.156Z,88.90
2019-04-25T01:11:55.488Z,88.50
2019-04-25T01:14:25.275Z,89.60
2019-04-25T01:16:54.963Z,90.00
2019-04-25T01:19:24.811Z,90.30
2019-04-25T01:21:54.946Z,90.10
2019-04-25T01:24:25.185Z,90.20
2019-04-25T01:26:54.652Z,90.20
2019-04-25T01:29:24.052Z,90.40
2019-04-25T01:31:54.382Z,90.40
2019-04-25T01:34:28.983Z,90.20
2019-04-25T01:37:16.057Z,90.00
2019-04-25T01:39:47.539Z,90.40
2019-04-25T01:42:21.578Z,90.10
2019-04-25T01:44:51.864Z,90.30
2019-04-25T01:47:21.924Z,90.50
2019-04-25T01:49:52.260Z,90.50
2019-04-25T01:52:23.529Z,90.50
2019-04-25T01:54:54.744Z,90.80
2019-04-25T01:57:25.109Z,90.40
2019-04-25T01:59:55.410Z,90.50
2019-04-25T02:02:27.386Z,90.90
2019-04-25T02:04:57.997Z,90.90
2019-04-25T02:07:27.708Z,90.90
2019-04-25T02:09:57.364Z,90.80
2019-04-25T02:12:28.419Z,90.90
2019-04-25T02:14:57.893Z,90.70
2019-04-25T02:17:27.407Z,91.10
2019-04-25T02:19:57.666Z,90.90
2019-04-25T02:22:27.206Z,90.90
2019-04-25T02:24:57.107Z,91.10
2019-04-25T02:27:26.648Z,91.30
2019-04-25T02:29:56.376Z,91.50
2019-04-25T02:32:26.654Z,91.50
2019-04-25T02:35:00.529Z,91.40
2019-04-25T02:37:27.072Z,91.40
2019-04-25T02:39:59.717Z,91.20
2019-04-25T02:42:27.620Z,91.40
2019-04-25T02:45:00.677Z,92.00
2019-04-25T02:47:47.267Z,91.70
2019-04-25T02:50:24.646Z,91.50
2019-04-25T02:52:57.443Z,91.30
2019-04-25T02:55:31.756Z,91.40
2019-04-25T02:57:58.297Z,91.40
2019-04-25T03:00:45.453Z,91.20
2019-04-25T03:03:01.065Z,91.20
2019-04-25T03:05:30.564Z,91.30
2019-04-25T03:08:01.472Z,91.40
2019-04-25T03:10:34.754Z,91.30
2019-04-25T03:13:07.971Z,91.30
2019-04-25T03:15:36.805Z,91.40
2019-04-25T03:18:10.859Z,91.30
2019-04-25T03:20:55.044Z,91.20
2019-04-25T03:23:35.022Z,91.00
2019-04-25T03:26:04.749Z,91.00
2019-04-25T03:28:35.189Z,91.20
2019-04-25T03:31:12.738Z,91.20
2019-04-25T03:33:38.476Z,91.30
2019-04-25T03:36:07.735Z,91.10
2019-04-25T03:38:37.217Z,91.40
2019-04-25T03:41:07.033Z,91.40
2019-04-25T03:43:36.411Z,91.50
2019-04-25T03:46:06.218Z,91.70
2019-04-25T03:48:36.973Z,91.60
2019-04-25T03:51:06.831Z,91.60
2019-04-25T03:53:36.202Z,91.90
2019-04-25T03:56:07.388Z,92.10
2019-04-25T03:58:37.061Z,92.00
2019-04-25T04:01:07.970Z,91.70
2019-04-25T04:03:37.531Z,91.40
2019-04-25T04:06:09.017Z,91.60
2019-04-25T04:08:39.173Z,91.40
2019-04-25T04:11:08.698Z,91.80
2019-04-25T04:13:38.059Z,92.30
2019-04-25T04:16:08.401Z,92.30
2019-04-25T04:18:42.027Z,92.40
2019-04-25T04:21:13.274Z,92.10
2019-04-25T04:23:48.406Z,91.90
2019-04-25T04:26:17.740Z,92.00
2019-04-25T04:28:47.055Z,92.60
2019-04-25T04:31:16.634Z,92.40
2019-04-25T04:33:45.953Z,92.60
2019-04-25T04:36:17.732Z,92.40
2019-04-25T04:38:46.294Z,92.90
2019-04-25T04:41:16.385Z,93.00
2019-04-25T04:43:46.926Z,92.80
2019-04-25T04:46:18.390Z,92.60
2019-04-25T04:48:47.225Z,93.20
2019-04-25T04:51:16.940Z,93.10
2019-04-25T04:53:46.342Z,92.90
2019-04-25T04:56:16.573Z,93.10
2019-04-25T04:58:46.838Z,92.70
2019-04-25T05:01:18.622Z,92.70
2019-04-25T05:03:49.633Z,92.30
2019-04-25T05:06:24.945Z,92.40
2019-04-25T05:08:59.071Z,92.60
2019-04-25T05:11:28.412Z,92.20
2019-04-25T05:13:57.715Z,92.30
2019-04-25T05:16:27.050Z,92.30
2019-04-25T05:18:56.338Z,92.70
2019-04-25T05:21:25.655Z,92.50
2019-04-25T05:23:55.003Z,92.50
2019-04-25T05:26:25.052Z,92.40
2019-04-25T05:28:54.936Z,92.40
2019-04-25T05:31:26.023Z,92.20
2019-04-25T05:33:55.312Z,92.10
2019-04-25T05:36:26.319Z,92.00
2019-04-25T05:38:55.611Z,91.90
2019-04-25T05:41:35.962Z,91.90
2019-04-25T05:44:05.502Z,91.50
2019-04-25T05:46:34.826Z,91.40
2019-04-25T05:49:05.208Z,91.30
2019-04-25T05:51:34.734Z,91.20
2019-04-25T05:54:05.653Z,91.30
2019-04-25T05:56:34.202Z,91.00
2019-04-25T05:59:05.482Z,90.80
2019-04-25T06:01:35.846Z,90.60
2019-04-25T06:04:05.418Z,90.60
2019-04-25T06:06:36.660Z,90.20
2019-04-25T06:09:28.413Z,90.10
2019-04-25T06:12:18.201Z,89.70
2019-04-25T06:14:47.610Z,88.90
2019-04-25T06:17:30.491Z,88.60
2019-04-25T06:20:05.612Z,87.80
2019-04-25T06:22:37.208Z,87.70
2019-04-25T06:25:12.838Z,87.80
2019-04-25T06:27:41.101Z,86.80
2019-04-25T06:30:12.146Z,87.10
2019-04-25T06:32:41.616Z,87.00
2019-04-25T06:35:11.444Z,86.60
2019-04-25T06:37:40.773Z,86.40
2019-04-25T06:40:10.838Z,86.00
2019-04-25T06:42:40.161Z,85.80
2019-04-25T06:45:30.211Z,85.50
2019-04-25T06:48:06.798Z,85.00
2019-04-25T06:50:36.121Z,84.90
2019-04-25T06:53:05.555Z,84.90
2019-04-25T06:55:34.863Z,84.00
2019-04-25T06:58:12.076Z,83.70
2019-04-25T07:00:41.093Z,82.80
2019-04-25T07:03:06.385Z,82.90
2019-04-25T07:05:40.237Z,81.90
2019-04-25T07:08:06.728Z,81.10
2019-04-25T07:10:36.232Z,79.50
2019-04-25T07:13:05.603Z,79.70
2019-04-25T07:15:35.271Z,79.50
2019-04-25T07:18:04.828Z,77.90
2019-04-25T07:20:35.234Z,77.20
2019-04-25T07:23:04.367Z,77.10
2019-04-25T07:25:36.638Z,77.50
2019-04-25T07:28:07.895Z,75.70
2019-04-25T07:30:50.086Z,74.10
2019-04-25T07:33:35.040Z,73.10
2019-04-25T07:36:05.294Z,72.40
2019-04-25T07:38:35.013Z,70.80
2019-04-25T07:41:04.751Z,69.30
2019-04-25T07:43:35.118Z,68.60
2019-04-25T07:46:05.611Z,68.40
2019-04-25T07:48:37.265Z,65.90
2019-04-25T07:51:06.304Z,65.70
2019-04-25T07:53:36.110Z,64.00
2019-04-25T07:56:05.776Z,62.60
2019-04-25T07:58:49.297Z,61.80
2019-04-25T08:01:14.023Z,58.70
2019-04-25T08:03:44.712Z,56.60
2019-04-25T08:06:14.255Z,57.40
2019-04-25T08:08:43.889Z,57.60
2019-04-25T08:11:14.134Z,56.40
2019-04-25T08:13:50.384Z,54.00
2019-04-25T08:16:21.325Z,54.10
2019-04-25T08:18:51.167Z,54.00
2019-04-25T08:21:20.632Z,52.90
2019-04-25T08:23:50.214Z,52.70
2019-04-25T08:26:19.686Z,50.90
2019-04-25T08:28:55.174Z,50.10
2019-04-25T08:31:20.212Z,50.60
2019-04-25T08:33:49.602Z,50.20
2019-04-25T08:36:18.913Z,50.10
2019-04-25T08:38:48.238Z,48.80
2019-04-25T08:41:17.548Z,48.30
2019-04-25T08:43:46.875Z,48.20
2019-04-25T08:46:16.206Z,48.40
2019-04-25T08:49:06.099Z,47.30
2019-04-25T08:51:36.290Z,46.00
2019-04-25T08:54:07.673Z,45.40
2019-04-25T08:56:37.818Z,46.80
2019-04-25T08:59:08.279Z,46.70
2019-04-25T09:01:54.411Z,45.10
2019-04-25T09:04:35.727Z,43.10
2019-04-25T09:07:05.645Z,42.40
2019-04-25T09:09:36.927Z,39.90
2019-04-25T09:12:07.221Z,38.70
2019-04-25T09:14:37.714Z,38.20
2019-04-25T09:17:07.321Z,38.40
2019-04-25T09:19:38.158Z,39.00
2019-04-25T09:22:07.790Z,38.20
2019-04-25T09:24:38.722Z,37.20
2019-04-25T09:27:08.299Z,37.20
2019-04-25T09:29:37.597Z,35.70
2019-04-25T09:32:06.994Z,36.50
2019-04-25T09:34:36.331Z,36.70
2019-04-25T09:37:05.880Z,33.60
2019-04-25T09:39:43.449Z,34.10
2019-04-25T09:42:14.221Z,33.80
2019-04-25T09:45:03.648Z,33.20
2019-04-25T09:47:33.619Z,34.30
2019-04-25T09:50:04.680Z,31.50
2019-04-25T09:52:35.984Z,31.40
2019-04-25T09:55:13.731Z,31.10
2019-04-25T09:57:47.621Z,31.30
2019-04-25T10:00:20.281Z,30.00
2019-04-25T10:02:49.667Z,28.50
2019-04-25T10:05:19.040Z,29.40
2019-04-25T10:07:48.983Z,28.70
2019-04-25T10:10:18.426Z,29.00
2019-04-25T10:12:47.925Z,27.30
2019-04-25T10:15:24.044Z,26.40
2019-04-25T10:17:53.560Z,25.80
2019-04-25T10:20:23.219Z,25.20
2019-04-25T10:22:53.982Z,25.40
2019-04-25T10:25:23.502Z,25.30
2019-04-25T10:27:53.815Z,24.20
2019-04-25T10:30:24.237Z,25.50
2019-04-25T10:32:54.776Z,23.70
2019-04-25T10:35:24.164Z,24.20
2019-04-25T10:37:54.961Z,23.70
2019-04-25T10:40:25.387Z,23.90
2019-04-25T10:42:57.564Z,24.60
2019-04-25T10:45:27.653Z,24.30
2019-04-25T10:47:56.592Z,23.30
2019-04-25T10:50:26.291Z,23.20
2019-04-25T10:52:55.940Z,23.50
2019-04-25T10:55:25.304Z,22.30
2019-04-25T10:57:55.101Z,23.70
2019-04-25T11:00:28.113Z,21.70
2019-04-25T11:02:59.324Z,23.10
2019-04-25T11:05:28.724Z,21.90
2019-04-25T11:07:57.291Z,22.60
2019-04-25T11:10:26.787Z,21.00
2019-04-25T11:12:56.295Z,23.10
2019-04-25T11:15:25.770Z,22.70
2019-04-25T11:17:55.151Z,21.90
2019-04-25T11:20:27.599Z,22.90
2019-04-25T11:22:57.095Z,20.90
2019-04-25T11:25:26.823Z,21.60
2019-04-25T11:27:56.124Z,20.00
2019-04-25T11:30:27.101Z,20.10
2019-04-25T11:32:57.006Z,20.30
2019-04-25T11:35:26.335Z,19.20
2019-04-25T11:37:57.310Z,19.80
2019-04-25T11:40:34.682Z,18.80
2019-04-25T11:43:04.428Z,20.20
2019-04-25T11:45:36.736Z,18.60
2019-04-25T11:48:06.304Z,19.40
2019-04-25T11:50:37.076Z,18.00
2019-04-25T11:53:07.074Z,18.20
2019-04-25T11:55:36.412Z,18.00
2019-04-25T11:58:05.894Z,16.90
2019-04-25T12:00:35.535Z,15.30
2019-04-25T12:03:05.540Z,15.20
2019-04-25T12:05:34.942Z,16.50
2019-04-25T12:08:04.504Z,15.50
2019-04-25T12:10:35.567Z,15.90
2019-04-25T12:13:04.936Z,16.60
2019-04-25T12:15:34.273Z,15.70
2019-04-25T12:18:04.653Z,15.40
2019-04-25T12:20:35.432Z,16.90
2019-04-25T12:23:10.242Z,16.60
2019-04-25T12:25:35.741Z,16.50
2019-04-25T12:28:06.132Z,15.70
2019-04-25T12:30:39.977Z,15.10
2019-04-25T12:33:18.455Z,15.90
2019-04-25T12:35:37.647Z,15.00
2019-04-25T12:38:06.964Z,14.30
2019-04-25T12:40:36.288Z,14.60
2019-04-25T12:43:05.653Z,14.80
2019-04-25T12:45:36.619Z,13.80
2019-04-25T12:48:07.909Z,15.20
2019-04-25T12:50:37.245Z,14.70
2019-04-25T12:53:05.765Z,15.10
2019-04-25T12:55:35.006Z,15.80
2019-04-25T12:58:05.815Z,14.80
2019-04-25T13:00:47.302Z,15.20
2019-04-25T13:03:06.940Z,14.50
2019-04-25T13:05:36.515Z,14.50
2019-04-25T13:08:05.924Z,14.90
2019-04-25T13:10:35.696Z,14.70
2019-04-25T13:13:05.162Z,15.10
2019-04-25T13:15:34.874Z,15.00
2019-04-25T13:18:03.621Z,15.00
2019-04-25T13:20:32.905Z,16.00
2019-04-25T13:23:03.544Z,16.50
2019-04-25T13:25:34.304Z,15.40
2019-04-25T13:28:23.745Z,17.00
2019-04-25T13:31:08.812Z,16.80
2019-04-25T13:33:38.777Z,16.80
2019-04-25T13:36:12.324Z,17.60
2019-04-25T13:38:41.791Z,17.50
2019-04-25T13:41:11.101Z,17.10
2019-04-25T13:43:40.484Z,17.90
2019-04-25T13:46:10.765Z,17.90
2019-04-25T13:48:40.735Z,17.10
2019-04-25T13:51:10.219Z,17.30
2019-04-25T13:53:39.615Z,17.00
2019-04-25T13:56:09.172Z,17.70
2019-04-25T13:58:38.499Z,17.40
2019-04-25T14:01:13.135Z,17.10
2019-04-25T14:03:42.008Z,17.30
2019-04-25T14:06:11.293Z,17.00
2019-04-25T14:08:40.619Z,17.20
2019-04-25T14:11:10.257Z,16.30
2019-04-25T14:13:38.824Z,16.10
2019-04-25T14:16:25.008Z,16.20
2019-04-25T14:18:55.138Z,14.90
2019-04-25T14:21:25.123Z,14.70
2019-04-25T14:23:55.519Z,16.30
2019-04-25T14:26:25.113Z,14.80
2019-04-25T14:28:54.564Z,15.60
2019-04-25T14:31:39.327Z,15.30
2019-04-25T14:33:55.895Z,15.00
2019-04-25T14:36:27.142Z,14.80
2019-04-25T14:38:56.386Z,14.90
2019-04-25T14:41:26.085Z,14.90
2019-04-25T14:43:55.488Z,15.60
2019-04-25T14:46:26.380Z,16.00
2019-04-25T14:48:56.976Z,16.30
2019-04-25T14:51:26.301Z,16.80
2019-04-25T14:53:56.438Z,16.10
2019-04-25T14:56:36.677Z,16.90
2019-04-25T14:59:06.048Z,16.00
2019-04-25T15:01:44.436Z,16.10
2019-04-25T15:04:06.399Z,16.20
2019-04-25T15:06:35.747Z,15.70
2019-04-25T15:09:06.777Z,16.30
2019-04-25T15:11:37.485Z,16.70
2019-04-25T15:14:06.787Z,16.10
2019-04-25T15:16:36.140Z,15.90
2019-04-25T15:19:05.512Z,15.90
2019-04-25T15:21:34.904Z,15.90
2019-04-25T15:24:06.516Z,16.50
2019-04-25T15:26:36.055Z,16.90
2019-04-25T15:29:05.579Z,17.20
2019-04-25T15:31:34.910Z,16.80
2019-04-25T15:34:04.304Z,20.20
2019-04-25T15:36:41.160Z,18.40
2019-04-25T15:39:27.212Z,18.00
2019-04-25T15:42:06.301Z,19.00
2019-04-25T15:44:52.651Z,18.70
2019-04-25T15:47:23.605Z,19.40
2019-04-25T15:49:52.992Z,20.20
2019-04-25T15:52:22.342Z,20.30
2019-04-25T15:54:51.730Z,21.70
2019-04-25T15:57:21.107Z,20.90
2019-04-25T15:59:50.436Z,22.80
2019-04-25T16:02:19.766Z,24.50
2019-04-25T16:04:49.084Z,22.80
2019-04-25T16:07:18.714Z,22.60
2019-04-25T16:09:48.219Z,23.00
2019-04-25T16:12:17.826Z,22.60
2019-04-25T16:14:47.136Z,22.50
2019-04-25T16:17:16.520Z,24.80
2019-04-25T16:19:45.826Z,24.10
2019-04-25T16:22:15.293Z,24.20
2019-04-25T16:24:44.656Z,24.70
2019-04-25T16:27:14.849Z,25.30
2019-04-25T16:29:44.457Z,23.80
2019-04-25T16:32:20.664Z,25.60
2019-04-25T16:34:46.582Z,25.50
2019-04-25T16:37:15.959Z,27.60
2019-04-25T16:39:45.275Z,24.60
2019-04-25T16:42:14.699Z,24.80
2019-04-25T16:44:44.070Z,23.90
2019-04-25T16:47:15.108Z,24.30
2019-04-25T16:49:44.412Z,23.80
2019-04-25T16:52:14.475Z,25.10
2019-04-25T16:54:43.771Z,25.20
2019-04-25T16:57:13.108Z,24.40
2019-04-25T16:59:42.407Z,23.50
2019-04-25T17:02:11.880Z,26.30
2019-04-25T17:04:41.725Z,28.00
2019-04-25T17:07:11.565Z,29.00
2019-04-25T17:09:40.906Z,29.50
2019-04-25T17:12:10.941Z,29.40
2019-04-25T17:14:42.324Z,29.40
2019-04-25T17:17:19.467Z,27.90
2019-04-25T17:20:06.931Z,27.50
2019-04-25T17:22:37.145Z,27.00
2019-04-25T17:25:06.903Z,25.60
2019-04-25T17:27:37.048Z,27.20
2019-04-25T17:30:10.644Z,26.40
2019-04-25T17:32:54.196Z,27.60
2019-04-25T17:35:25.284Z,28.30
2019-04-25T17:37:56.248Z,26.60
2019-04-25T17:40:27.269Z,26.60
2019-04-25T17:42:56.680Z,28.00
2019-04-25T17:45:27.623Z,29.10
2019-04-25T17:47:56.957Z,26.10
2019-04-25T17:50:26.319Z,26.30
2019-04-25T17:52:55.713Z,27.20
2019-04-25T17:55:25.019Z,29.50
2019-04-25T17:57:54.348Z,31.60
2019-04-25T18:00:31.403Z,31.40
2019-04-25T18:03:00.812Z,32.90
2019-04-25T18:05:31.334Z,33.00
2019-04-25T18:08:00.671Z,33.70
2019-04-25T18:10:30.059Z,34.00
2019-04-25T18:12:59.389Z,33.90
2019-04-25T18:15:45.938Z,34.20
2019-04-25T18:18:19.885Z,35.40
2019-04-25T18:20:49.195Z,36.40
2019-04-25T18:23:36.607Z,37.80
2019-04-25T18:26:07.814Z,37.60
2019-04-25T18:28:45.736Z,38.00
2019-04-25T18:31:15.161Z,39.90
2019-04-25T18:33:45.890Z,40.30
2019-04-25T18:36:23.075Z,40.70
2019-04-25T18:38:54.015Z,40.30
2019-04-25T18:41:25.020Z,40.70
2019-04-25T18:43:58.946Z,41.90
2019-04-25T18:46:29.921Z,43.50
2019-04-25T18:48:59.328Z,43.00
2019-04-25T18:51:29.084Z,43.90
2019-04-25T18:54:00.055Z,43.60
2019-04-25T18:56:31.046Z,44.50
2019-04-25T18:59:09.045Z,44.30
2019-04-25T19:01:48.672Z,43.80
2019-04-25T19:04:34.678Z,42.30
2019-04-25T19:07:04.014Z,43.40
2019-04-25T19:09:33.582Z,44.60
2019-04-25T19:12:02.898Z,43.00
2019-04-25T19:14:32.345Z,44.60
2019-04-25T19:17:01.636Z,45.50
2019-04-25T19:19:31.130Z,46.40
2019-04-25T19:22:00.505Z,47.00
2019-04-25T19:24:29.904Z,47.80
2019-04-25T19:26:59.256Z,47.80
2019-04-25T19:29:28.860Z,52.70
2019-04-25T19:31:58.586Z,53.30
2019-04-25T19:34:28.012Z,53.80
2019-04-25T19:36:57.779Z,53.30
2019-04-25T19:39:28.796Z,54.00
2019-04-25T19:42:16.216Z,54.60
2019-04-25T19:44:47.201Z,54.60
2019-04-25T19:47:16.650Z,55.00
2019-04-25T19:49:46.314Z,55.40
2019-04-25T19:52:16.557Z,55.70
2019-04-25T19:54:45.933Z,56.00
2019-04-25T19:57:16.188Z,56.60
2019-04-25T19:59:46.416Z,56.90
2019-04-25T20:05:15.479Z,57.00
2019-04-25T20:07:48.206Z,57.50
2019-04-25T20:10:23.613Z,58.10
2019-04-25T20:12:55.031Z,58.30
2019-04-25T20:15:25.569Z,58.90
2019-04-25T20:17:54.909Z,59.10
2019-04-25T20:20:24.311Z,59.90
2019-04-25T20:22:54.436Z,59.90
2019-04-25T20:25:23.915Z,60.20
2019-04-25T20:27:53.207Z,60.60
2019-04-25T20:30:23.690Z,61.10
2019-04-25T20:32:53.586Z,61.30
2019-04-25T20:35:24.923Z,61.90
2019-04-25T20:37:54.304Z,62.10
2019-04-25T20:40:23.928Z,62.60
2019-04-25T20:42:53.975Z,62.90
2019-04-25T20:45:24.708Z,63.10
2019-04-25T20:47:54.742Z,63.90
2019-04-25T20:50:24.201Z,63.90
2019-04-25T20:52:53.532Z,64.50
2019-04-25T20:55:22.952Z,65.20
2019-04-25T20:57:53.345Z,65.30
2019-04-25T21:00:40.372Z,65.50
2019-04-25T21:03:10.023Z,65.70
2019-04-25T21:05:39.481Z,66.10
2019-04-25T21:08:08.782Z,66.50
2019-04-25T21:10:38.281Z,66.50
2019-04-25T21:13:09.327Z,67.50
2019-04-25T21:15:52.378Z,67.50
2019-04-25T21:18:23.334Z,68.40
2019-04-25T21:20:53.321Z,67.70
2019-04-25T21:23:22.719Z,68.10
2019-04-25T21:25:52.923Z,68.80
2019-04-25T21:28:22.322Z,68.80
2019-04-25T21:30:52.654Z,68.20
2019-04-25T21:33:22.197Z,67.80
2019-04-25T21:35:52.432Z,67.50
2019-04-25T21:38:22.768Z,68.70
2019-04-25T21:40:59.874Z,67.60
2019-04-25T21:43:31.165Z,67.50
2019-04-25T21:46:00.894Z,66.30
2019-04-25T21:48:30.516Z,65.40
2019-04-25T21:51:01.861Z,65.20
2019-04-25T21:53:31.159Z,65.00
2019-04-25T21:56:01.830Z,64.70
2019-04-25T21:58:31.235Z,65.20
2019-04-25T22:01:02.676Z,64.40
2019-04-25T22:03:33.774Z,64.50
2019-04-25T22:06:05.005Z,65.20
2019-04-25T22:08:34.580Z,65.70
2019-04-25T22:11:04.062Z,65.80
2019-04-25T22:13:33.872Z,67.20
2019-04-25T22:16:04.029Z,68.20
2019-04-25T22:18:33.804Z,69.10
2019-04-25T22:21:04.182Z,68.20
2019-04-25T22:23:33.956Z,68.10
2019-04-25T22:26:03.634Z,68.40
2019-04-25T22:28:33.704Z,70.00
2019-04-25T22:31:05.486Z,70.30
2019-04-25T22:33:36.560Z,69.20
2019-04-25T22:36:13.687Z,69.30
2019-04-25T22:38:43.018Z,69.90
2019-04-25T22:41:12.352Z,70.10
2019-04-25T22:43:43.573Z,70.30
2019-04-25T22:46:25.262Z,70.00
2019-04-25T22:48:50.084Z,69.40
2019-04-25T22:51:19.467Z,70.30
2019-04-25T22:53:49.840Z,70.40
2019-04-25T22:56:19.237Z,71.40
2019-04-25T22:58:48.587Z,72.00
2019-04-25T23:01:23.255Z,72.70
2019-04-25T23:03:54.268Z,73.60
2019-04-25T23:09:18.463Z,73.80
2019-04-25T23:11:48.039Z,74.40
2019-04-25T23:14:17.743Z,74.50
2019-04-25T23:16:47.088Z,74.10
2019-04-25T23:19:16.381Z,73.60
2019-04-25T23:21:45.995Z,73.90
2019-04-25T23:24:16.948Z,74.30
2019-04-25T23:26:57.108Z,75.80
2019-04-25T23:29:26.468Z,77.10
2019-04-25T23:31:55.795Z,77.10
2019-04-25T23:34:25.374Z,78.00
2019-04-25T23:36:54.702Z,78.10
2019-04-25T23:39:24.377Z,80.00
2019-04-25T23:41:53.757Z,81.60
2019-04-25T23:44:25.333Z,81.80
2019-04-25T23:46:54.127Z,80.90
2019-04-25T23:49:23.444Z,79.90
2019-04-25T23:51:53.118Z,79.50
2019-04-25T23:54:22.509Z,78.90
2019-04-25T23:56:51.878Z,79.80
2019-04-25T23:59:22.152Z,79.00
